Time;durP1;ratioP1;P1;durP2;ratioP2;P2;SDS_P1;SDS_P2;PMS_P1;PMS_P2;Temp;Humidity;BMP_temperature;BMP_pressure;BME280_temperature;BME280_humidity;BME280_pressure;Samples;Min_cycle;Max_cycle;Signal;HPM_P1;HPM_P2
2023/05/20 00:00:08;;;;;;;3.42;1.33;;;15.40;74.30;;;;;;6247331;22;20008;-82
2023/05/20 00:02:34;;;;;;;2.75;1.40;;;15.40;74.30;;;;;;6275448;22;20053;-83
2023/05/20 00:04:59;;;;;;;2.38;1.35;;;15.40;74.30;;;;;;6249654;22;20429;-83
2023/05/20 00:07:25;;;;;;;2.92;1.48;;;15.40;74.40;;;;;;6250643;22;20007;-82
2023/05/20 00:09:51;;;;;;;3.95;1.40;;;15.40;74.40;;;;;;6277651;22;20003;-83
2023/05/20 00:12:16;;;;;;;3.08;1.42;;;15.40;74.50;;;;;;6248724;22;20007;-83
2023/05/20 00:14:42;;;;;;;2.90;1.42;;;15.40;74.50;;;;;;6278392;22;20461;-83
2023/05/20 00:17:07;;;;;;;2.67;1.52;;;15.40;74.50;;;;;;6279922;22;20022;-83
2023/05/20 00:19:32;;;;;;;5.10;1.40;;;15.40;74.50;;;;;;6252856;22;20012;-83
2023/05/20 00:21:58;;;;;;;2.90;1.40;;;15.50;74.60;;;;;;6279452;22;19999;-83
2023/05/20 00:24:24;;;;;;;2.25;1.33;;;15.40;74.60;;;;;;6280165;22;20082;-83
2023/05/20 00:26:50;;;;;;;3.60;1.67;;;15.50;74.50;;;;;;6279400;22;20003;-83
2023/05/20 00:29:15;;;;;;;2.83;1.50;;;15.50;74.50;;;;;;6252207;22;20633;-82
2023/05/20 00:31:41;;;;;;;4.28;1.95;;;15.50;74.50;;;;;;6279085;22;20415;-82
2023/05/20 00:34:07;;;;;;;2.53;1.30;;;15.50;75.10;;;;;;6279177;22;20006;-82
2023/05/20 00:36:33;;;;;;;2.92;1.52;;;15.50;74.70;;;;;;6251266;22;20010;-83
2023/05/20 00:38:59;;;;;;;2.30;1.35;;;15.50;74.50;;;;;;6251612;22;20003;-82
2023/05/20 00:41:25;;;;;;;3.42;1.40;;;15.50;74.60;;;;;;6276430;22;20049;-83
2023/05/20 00:43:54;;;;;;;4.13;1.38;;;15.50;74.60;;;;;;6249844;22;20054;-83
2023/05/20 00:46:20;;;;;;;2.58;1.27;;;15.50;74.40;;;;;;6250381;22;20059;-83
2023/05/20 00:48:46;;;;;;;2.15;1.30;;;15.50;74.40;;;;;;6249426;22;20454;-83
2023/05/20 00:51:13;;;;;;;3.40;1.50;;;15.40;74.40;;;;;;6249208;22;20567;-83
2023/05/20 00:53:39;;;;;;;4.22;1.67;;;15.40;74.50;;;;;;6250122;22;20000;-83
2023/05/20 00:56:05;;;;;;;2.75;1.35;;;15.40;74.50;;;;;;6249584;22;20004;-83
2023/05/20 00:58:31;;;;;;;3.50;1.52;;;15.40;74.60;;;;;;6276564;22;20046;-83
2023/05/20 01:00:57;;;;;;;2.20;1.27;;;15.40;74.60;;;;;;6277444;22;20000;-83
2023/05/20 01:03:22;;;;;;;4.50;1.50;;;15.40;74.60;;;;;;6250432;22;20019;-83
2023/05/20 01:05:48;;;;;;;2.80;1.42;;;15.40;74.70;;;;;;6250433;22;20430;-83
2023/05/20 01:08:13;;;;;;;3.53;1.60;;;15.40;74.70;;;;;;6249680;22;20004;-83
2023/05/20 01:10:44;;;;;;;3.22;1.52;;;15.40;74.70;;;;;;6276090;22;19999;-82
2023/05/20 01:13:14;;;;;;;3.83;1.40;;;15.40;74.70;;;;;;6277612;22;20010;-82
2023/05/20 01:15:40;;;;;;;3.38;1.30;;;15.40;74.60;;;;;;6278311;22;20022;-83
2023/05/20 01:18:09;;;;;;;2.72;1.45;;;15.40;74.50;;;;;;6277315;22;20011;-83
2023/05/20 01:20:36;;;;;;;3.00;1.40;;;15.40;74.50;;;;;;6249663;22;20015;-83
2023/05/20 01:23:02;;;;;;;4.10;1.60;;;15.30;74.60;;;;;;6249634;22;20057;-83
2023/05/20 01:25:27;;;;;;;3.13;1.30;;;15.30;74.50;;;;;;6250029;22;20014;-83
2023/05/20 01:27:56;;;;;;;2.90;1.60;;;15.30;74.60;;;;;;6249565;22;20003;-83
2023/05/20 01:30:26;;;;;;;3.47;1.40;;;15.40;74.60;;;;;;6276232;22;20430;-81
2023/05/20 01:32:55;;;;;;;2.60;1.33;;;15.30;74.40;;;;;;6249289;22;20004;-83
2023/05/20 01:35:21;;;;;;;2.25;1.30;;;15.40;74.50;;;;;;6249186;22;20000;-83
2023/05/20 01:37:47;;;;;;;2.88;1.48;;;15.40;74.50;;;;;;6249160;22;20011;-84
2023/05/20 01:40:15;;;;;;;3.33;1.40;;;15.40;74.60;;;;;;6249396;22;20035;-83
2023/05/20 01:42:42;;;;;;;2.90;1.45;;;15.30;74.60;;;;;;6249405;22;20004;-83
2023/05/20 01:45:08;;;;;;;3.25;1.55;;;15.30;74.50;;;;;;6276136;22;20429;-83
2023/05/20 01:47:34;;;;;;;2.60;1.50;;;15.30;74.50;;;;;;6276275;22;20000;-83
2023/05/20 01:49:59;;;;;;;2.70;1.40;;;15.30;74.50;;;;;;6248448;22;20000;-83
2023/05/20 01:52:25;;;;;;;2.70;1.33;;;15.30;74.50;;;;;;6249226;22;20004;-83
2023/05/20 01:54:50;;;;;;;2.17;1.23;;;15.30;74.60;;;;;;6248877;22;20430;-83
2023/05/20 01:57:20;;;;;;;4.55;1.55;;;15.30;74.60;;;;;;6276101;22;19996;-83
2023/05/20 01:59:46;;;;;;;3.80;1.60;;;15.30;74.50;;;;;;6249751;22;20468;-83
2023/05/20 02:02:13;;;;;;;3.40;1.65;;;15.30;74.50;;;;;;6283540;22;20003;-83
2023/05/20 02:04:38;;;;;;;3.35;1.40;;;15.30;74.70;;;;;;6283334;22;20018;-84
2023/05/20 02:07:04;;;;;;;3.20;1.42;;;15.40;74.70;;;;;;6283186;22;20035;-83
2023/05/20 02:09:29;;;;;;;2.97;1.33;;;15.40;74.80;;;;;;6282960;22;20452;-83
2023/05/20 02:11:55;;;;;;;3.13;1.50;;;15.40;74.80;;;;;;6255253;22;20004;-83
2023/05/20 02:14:20;;;;;;;2.47;1.40;;;15.40;74.80;;;;;;6255096;22;20452;-83
2023/05/20 02:16:46;;;;;;;3.00;1.50;;;15.40;74.80;;;;;;6255559;22;20045;-83
2023/05/20 02:19:12;;;;;;;3.70;1.70;;;15.40;74.70;;;;;;6282215;22;20430;-83
2023/05/20 02:21:41;;;;;;;3.17;1.52;;;15.50;74.80;;;;;;6252707;22;20083;-83
2023/05/20 02:24:06;;;;;;;2.83;1.48;;;15.50;74.70;;;;;;6281873;22;20011;-83
2023/05/20 02:26:33;;;;;;;2.90;1.50;;;15.50;74.80;;;;;;6282331;22;20007;-83
2023/05/20 02:28:59;;;;;;;2.47;1.50;;;15.50;74.70;;;;;;6253520;22;20461;-82
2023/05/20 02:31:24;;;;;;;2.97;1.55;;;15.50;74.80;;;;;;6252889;22;19999;-83
2023/05/20 02:33:50;;;;;;;4.05;1.50;;;15.40;74.70;;;;;;6279040;22;20003;-84
2023/05/20 02:36:16;;;;;;;3.42;1.63;;;15.40;74.50;;;;;;6279985;22;20307;-83
2023/05/20 02:38:42;;;;;;;3.78;1.63;;;15.40;74.50;;;;;;6280211;22;20007;-84
2023/05/20 02:41:07;;;;;;;2.22;1.13;;;15.40;74.50;;;;;;6252234;22;20012;-83
2023/05/20 02:43:33;;;;;;;2.58;1.40;;;15.40;74.50;;;;;;6252762;22;20029;-83
2023/05/20 02:45:58;;;;;;;3.55;1.50;;;15.40;74.50;;;;;;6250502;22;20016;-83
2023/05/20 02:48:24;;;;;;;3.53;1.60;;;15.40;74.60;;;;;;6279341;22;20426;-83
2023/05/20 02:50:50;;;;;;;3.40;1.70;;;15.40;74.70;;;;;;6250479;22;20000;-82
2023/05/20 02:53:15;;;;;;;3.38;1.60;;;15.40;74.70;;;;;;6277418;22;19996;-84
2023/05/20 02:55:41;;;;;;;3.20;1.65;;;15.30;74.70;;;;;;6282953;22;20011;-83
2023/05/20 02:58:07;;;;;;;3.53;1.73;;;15.30;74.70;;;;;;6254537;22;20087;-84
2023/05/20 03:00:39;;;;;;;3.55;1.67;;;15.30;74.70;;;;;;6282664;22;20000;-83
2023/05/20 03:03:05;;;;;;;3.20;1.58;;;15.30;74.70;;;;;;6255392;22;20018;-83
2023/05/20 03:05:31;;;;;;;3.13;1.60;;;15.30;74.70;;;;;;6255464;22;20010;-84
2023/05/20 03:07:56;;;;;;;3.72;1.63;;;15.30;74.70;;;;;;6254348;22;20345;-83
2023/05/20 03:10:22;;;;;;;3.25;1.50;;;15.30;74.70;;;;;;6253985;22;19992;-83
2023/05/20 03:12:48;;;;;;;2.78;1.40;;;15.30;74.60;;;;;;6281443;22;20074;-83
2023/05/20 03:15:13;;;;;;;3.63;1.60;;;15.30;75.20;;;;;;6254299;22;20384;-83
2023/05/20 03:17:39;;;;;;;3.20;1.80;;;15.30;74.60;;;;;;6280818;22;20000;-83
2023/05/20 03:20:06;;;;;;;3.45;1.55;;;15.30;74.60;;;;;;6253508;22;20003;-83
2023/05/20 03:22:31;;;;;;;2.83;1.50;;;15.30;74.60;;;;;;6253760;22;20016;-83
2023/05/20 03:24:59;;;;;;;3.47;1.80;;;15.30;74.50;;;;;;6253723;22;20011;-83
2023/05/20 03:27:25;;;;;;;3.03;1.65;;;15.30;74.60;;;;;;6252948;22;20077;-83
2023/05/20 03:29:53;;;;;;;2.47;1.50;;;15.30;74.60;;;;;;6252209;22;20008;-83
2023/05/20 03:32:19;;;;;;;3.47;1.63;;;15.30;74.60;;;;;;6253140;22;20413;-83
2023/05/20 03:34:45;;;;;;;3.97;1.70;;;15.30;74.60;;;;;;6252842;22;20079;-83
2023/05/20 03:37:10;;;;;;;3.95;1.80;;;15.30;74.60;;;;;;6252555;22;20007;-83
2023/05/20 03:39:36;;;;;;;3.30;1.60;;;15.30;74.50;;;;;;6251714;22;20003;-82
2023/05/20 03:42:01;;;;;;;3.17;1.60;;;15.30;74.50;;;;;;6279253;22;20079;-83
2023/05/20 03:44:26;;;;;;;3.28;1.50;;;15.30;74.50;;;;;;6251852;22;20334;-83
2023/05/20 03:46:52;;;;;;;2.67;1.67;;;15.30;74.50;;;;;;6251421;22;20011;-84
2023/05/20 03:49:17;;;;;;;3.58;1.42;;;15.30;74.50;;;;;;6251363;22;20501;-82
2023/05/20 03:51:43;;;;;;;4.50;1.90;;;15.30;74.50;;;;;;6253217;22;19996;-83
2023/05/20 03:54:08;;;;;;;2.78;1.58;;;15.30;74.50;;;;;;6253455;22;20003;-83
2023/05/20 03:56:35;;;;;;;3.22;1.70;;;15.30;74.50;;;;;;6280458;22;20386;-83
2023/05/20 03:59:00;;;;;;;3.25;1.77;;;15.30;74.40;;;;;;6280814;22;20063;-83
2023/05/20 04:01:26;;;;;;;3.95;1.80;;;15.40;74.50;;;;;;6280533;22;20426;-83
2023/05/20 04:03:51;;;;;;;4.05;1.65;;;15.40;74.60;;;;;;6280226;22;20023;-83
2023/05/20 04:06:17;;;;;;;3.17;1.83;;;15.40;74.60;;;;;;6252920;22;20457;-83
2023/05/20 04:08:42;;;;;;;2.88;1.70;;;15.40;74.60;;;;;;6251976;22;20358;-83
2023/05/20 04:11:08;;;;;;;3.30;1.63;;;15.40;74.50;;;;;;6251281;22;20007;-83
2023/05/20 04:13:33;;;;;;;2.72;1.55;;;15.40;74.50;;;;;;6279266;22;19992;-83
2023/05/20 04:16:00;;;;;;;4.55;2.08;;;15.40;74.50;;;;;;6251841;22;20022;-83
2023/05/20 04:18:28;;;;;;;2.88;1.70;;;15.40;74.50;;;;;;6252247;22;20392;-83
2023/05/20 04:20:58;;;;;;;3.08;1.70;;;15.50;74.60;;;;;;6250192;22;20011;-83
2023/05/20 04:23:24;;;;;;;3.60;1.83;;;15.40;74.40;;;;;;6277963;22;19995;-83
2023/05/20 04:25:50;;;;;;;3.17;1.73;;;15.40;74.30;;;;;;6250022;22;20418;-83
2023/05/20 04:28:15;;;;;;;4.40;1.80;;;15.40;74.30;;;;;;6276862;22;20027;-82
2023/05/20 04:30:41;;;;;;;3.67;1.70;;;15.40;74.30;;;;;;6276714;22;20023;-83
2023/05/20 04:33:07;;;;;;;3.38;1.70;;;15.40;74.30;;;;;;6251025;22;20319;-80
2023/05/20 04:35:33;;;;;;;3.67;1.90;;;15.40;74.30;;;;;;6271913;22;20520;-79
2023/05/20 04:38:00;;;;;;;2.75;1.60;;;15.30;74.30;;;;;;6270620;22;20498;-81
2023/05/20 04:40:26;;;;;;;3.35;1.70;;;15.30;74.30;;;;;;6241953;22;20002;-81
2023/05/20 04:42:51;;;;;;;3.50;1.80;;;15.30;74.40;;;;;;6243387;22;20004;-80
2023/05/20 04:45:17;;;;;;;3.10;1.73;;;15.30;74.30;;;;;;6243050;22;20091;-81
2023/05/20 04:47:44;;;;;;;3.40;1.70;;;15.30;74.40;;;;;;6244112;22;20031;-81
2023/05/20 04:50:10;;;;;;;4.32;1.70;;;15.30;74.30;;;;;;6241968;22;20003;-80
2023/05/20 04:52:37;;;;;;;3.53;1.73;;;15.30;74.30;;;;;;6272876;22;19999;-79
2023/05/20 04:55:09;;;;;;;2.67;1.60;;;15.30;74.30;;;;;;6244209;22;20456;-80
2023/05/20 04:57:35;;;;;;;4.00;1.65;;;15.30;74.30;;;;;;6245242;22;19996;-80
2023/05/20 05:00:01;;;;;;;3.03;1.65;;;15.30;74.40;;;;;;6244813;22;20007;-79
2023/05/20 05:02:26;;;;;;;3.45;1.70;;;15.40;74.40;;;;;;6271731;22;20035;-80
2023/05/20 05:04:52;;;;;;;4.38;1.63;;;15.30;74.40;;;;;;6272578;22;20020;-80
2023/05/20 05:07:17;;;;;;;3.47;1.73;;;15.30;74.30;;;;;;6244529;22;20528;-80
2023/05/20 05:09:43;;;;;;;3.28;1.73;;;15.30;74.30;;;;;;6244552;22;20080;-81
2023/05/20 05:12:08;;;;;;;2.50;1.55;;;15.30;74.30;;;;;;6272195;22;20059;-80
2023/05/20 05:14:34;;;;;;;3.35;1.90;;;15.30;74.40;;;;;;6245013;22;20385;-80
2023/05/20 05:16:59;;;;;;;2.55;1.45;;;15.30;74.30;;;;;;6244299;22;20004;-78
2023/05/20 05:19:25;;;;;;;4.90;1.60;;;15.30;74.30;;;;;;6245463;22;20023;-81
2023/05/20 05:21:50;;;;;;;3.92;1.45;;;15.30;74.30;;;;;;6244654;22;20066;-80
2023/05/20 05:24:16;;;;;;;3.28;1.80;;;15.30;74.30;;;;;;6272574;22;20010;-79
2023/05/20 05:26:41;;;;;;;2.80;1.50;;;15.30;74.30;;;;;;6272353;22;20030;-82
2023/05/20 05:29:07;;;;;;;3.13;1.50;;;15.30;74.20;;;;;;6271759;22;20442;-80
2023/05/20 05:31:32;;;;;;;3.22;1.67;;;15.30;74.30;;;;;;6243873;22;20012;-80
2023/05/20 05:33:58;;;;;;;3.20;1.73;;;15.30;74.30;;;;;;6270731;22;19999;-80
2023/05/20 05:36:24;;;;;;;3.42;1.90;;;15.30;74.20;;;;;;6245112;22;20494;-80
2023/05/20 05:38:50;;;;;;;3.15;1.70;;;15.30;74.20;;;;;;6245511;22;20004;-80
2023/05/20 05:41:15;;;;;;;2.90;1.55;;;15.30;74.20;;;;;;6275756;22;19999;-81
2023/05/20 05:43:41;;;;;;;3.42;1.58;;;15.30;74.10;;;;;;6246480;22;20004;-79
2023/05/20 05:46:07;;;;;;;3.20;1.60;;;15.30;74.20;;;;;;6247279;22;20311;-80
2023/05/20 05:48:32;;;;;;;3.03;1.63;;;15.40;74.20;;;;;;6246455;22;20053;-79
2023/05/20 05:50:57;;;;;;;3.33;1.60;;;15.40;74.10;;;;;;6246743;22;20452;-81
2023/05/20 05:53:23;;;;;;;4.03;1.83;;;15.40;74.10;;;;;;6246268;22;20000;-78
2023/05/20 05:55:48;;;;;;;3.15;1.55;;;15.40;74.00;;;;;;6273171;22;20000;-81
2023/05/20 05:58:14;;;;;;;2.95;1.70;;;15.40;73.90;;;;;;6274087;22;20035;-81
2023/05/20 06:00:39;;;;;;;3.10;1.70;;;15.40;73.90;;;;;;6245222;22;20386;-81
2023/05/20 06:03:05;;;;;;;3.20;1.60;;;15.50;73.90;;;;;;6273815;22;20098;-82
2023/05/20 06:05:31;;;;;;;3.03;1.60;;;15.50;73.90;;;;;;6246394;22;20086;-80
2023/05/20 06:07:56;;;;;;;2.67;1.60;;;15.50;73.90;;;;;;6245801;22;20094;-82
2023/05/20 06:10:22;;;;;;;3.45;1.50;;;15.50;74.20;;;;;;6244767;22;20265;-83
2023/05/20 06:12:48;;;;;;;3.40;1.80;;;15.50;73.70;;;;;;6244982;22;20031;-83
2023/05/20 06:15:13;;;;;;;3.38;1.70;;;15.50;73.70;;;;;;6242675;22;20030;-85
2023/05/20 06:17:39;;;;;;;3.13;1.60;;;15.50;73.70;;;;;;6244520;22;20459;-82
2023/05/20 06:20:05;;;;;;;4.28;1.92;;;15.50;73.80;;;;;;6244371;22;20303;-83
2023/05/20 06:22:31;;;;;;;3.38;1.60;;;15.50;73.90;;;;;;6244796;22;20046;-83
2023/05/20 06:24:59;;;;;;;3.78;1.90;;;15.50;73.80;;;;;;6244719;22;20011;-84
2023/05/20 06:27:25;;;;;;;4.40;1.80;;;15.50;73.80;;;;;;6242059;22;20007;-84
2023/05/20 06:29:50;;;;;;;3.72;1.90;;;15.50;73.80;;;;;;6244629;22;20008;-84
2023/05/20 06:32:16;;;;;;;2.83;1.52;;;15.50;73.70;;;;;;6275726;22;20003;-84
2023/05/20 06:34:41;;;;;;;5.40;1.70;;;15.50;73.80;;;;;;6250381;22;20003;-86
2023/05/20 06:37:07;;;;;;;3.22;1.52;;;15.50;73.90;;;;;;6249364;22;20493;-84
2023/05/20 06:39:32;;;;;;;3.55;1.52;;;15.50;73.70;;;;;;6248744;22;20394;-83
2023/05/20 06:41:58;;;;;;;5.25;1.80;;;15.50;73.70;;;;;;6246222;22;20053;-82
2023/05/20 06:44:23;;;;;;;3.35;1.55;;;15.50;73.70;;;;;;6272354;22;20467;-81
2023/05/20 06:46:49;;;;;;;2.58;1.58;;;15.50;73.70;;;;;;6272074;22;20053;-83
2023/05/20 06:49:14;;;;;;;3.15;1.65;;;15.50;73.70;;;;;;6245823;22;20007;-81
2023/05/20 06:51:40;;;;;;;3.85;1.50;;;15.60;73.80;;;;;;6272542;22;20315;-80
2023/05/20 06:54:05;;;;;;;4.57;1.65;;;15.60;73.80;;;;;;6273379;22;20010;-81
2023/05/20 06:56:31;;;;;;;3.67;1.60;;;15.60;73.80;;;;;;6272628;22;20038;-81
2023/05/20 06:58:56;;;;;;;4.55;1.88;;;15.60;73.80;;;;;;6244801;22;20342;-82
2023/05/20 07:01:22;;;;;;;4.93;1.63;;;15.60;73.80;;;;;;6244289;22;20345;-80
2023/05/20 07:03:47;;;;;;;5.00;2.05;;;15.60;73.70;;;;;;6245017;22;20019;-81
2023/05/20 07:06:13;;;;;;;2.85;1.70;;;15.60;73.70;;;;;;6244419;22;20464;-81
2023/05/20 07:08:38;;;;;;;4.78;1.73;;;15.70;73.80;;;;;;6244153;22;20010;-80
2023/05/20 07:11:04;;;;;;;3.92;1.70;;;15.70;73.70;;;;;;6243381;22;20004;-80
2023/05/20 07:13:29;;;;;;;2.20;1.50;;;15.70;73.60;;;;;;6271454;22;20000;-81
2023/05/20 07:15:55;;;;;;;4.55;1.90;;;15.70;73.60;;;;;;6270545;22;20010;-81
2023/05/20 07:18:20;;;;;;;3.88;1.70;;;15.70;73.50;;;;;;6243222;22;20354;-80
2023/05/20 07:20:46;;;;;;;2.95;1.60;;;15.70;73.50;;;;;;6270394;22;20008;-81
2023/05/20 07:23:11;;;;;;;3.35;1.70;;;15.80;73.50;;;;;;6270101;22;20094;-80
2023/05/20 07:25:37;;;;;;;3.95;1.70;;;15.80;73.40;;;;;;6240171;22;20011;-80
2023/05/20 07:28:02;;;;;;;4.25;1.80;;;15.80;73.40;;;;;;6242490;22;20026;-81
2023/05/20 07:30:28;;;;;;;5.22;1.88;;;15.80;73.40;;;;;;6242226;22;20430;-81
2023/05/20 07:32:53;;;;;;;3.40;1.67;;;15.80;73.30;;;;;;6270411;22;20003;-81
2023/05/20 07:35:19;;;;;;;2.35;1.65;;;15.80;73.20;;;;;;6242294;22;20392;-80
2023/05/20 07:37:45;;;;;;;4.15;1.80;;;15.90;73.20;;;;;;6243295;22;20007;-80
2023/05/20 07:40:10;;;;;;;3.30;1.70;;;15.90;73.20;;;;;;6244087;22;20643;-82
2023/05/20 07:42:36;;;;;;;3.67;1.83;;;15.90;73.00;;;;;;6244012;22;20011;-79
2023/05/20 07:45:01;;;;;;;3.67;1.52;;;16.00;73.00;;;;;;6241212;22;20033;-81
2023/05/20 07:47:27;;;;;;;3.47;1.80;;;16.00;72.90;;;;;;6267719;22;20004;-80
2023/05/20 07:49:53;;;;;;;3.08;1.58;;;16.00;72.80;;;;;;6266605;22;20014;-80
2023/05/20 07:52:18;;;;;;;3.58;1.70;;;16.00;72.70;;;;;;6268155;22;20004;-80
2023/05/20 07:54:44;;;;;;;3.63;2.00;;;16.10;72.70;;;;;;6240248;22;20004;-80
2023/05/20 07:57:09;;;;;;;3.58;1.77;;;16.10;72.70;;;;;;6240001;22;20000;-79
2023/05/20 07:59:35;;;;;;;3.38;1.83;;;16.10;72.60;;;;;;6269073;22;20091;-80
2023/05/20 08:02:00;;;;;;;3.65;1.77;;;16.10;72.40;;;;;;6268755;22;20129;-80
2023/05/20 08:04:26;;;;;;;4.40;1.95;;;16.20;73.00;;;;;;6268509;22;20061;-81
2023/05/20 08:06:52;;;;;;;4.13;1.80;;;16.20;72.40;;;;;;6240164;22;20061;-79
2023/05/20 08:09:18;;;;;;;4.20;1.80;;;16.20;72.30;;;;;;6268764;22;20582;-80
2023/05/20 08:11:44;;;;;;;3.85;1.58;;;16.20;72.20;;;;;;6269057;22;20027;-79
2023/05/20 08:14:10;;;;;;;3.22;1.75;;;16.20;72.10;;;;;;6267322;22;19999;-79
2023/05/20 08:16:36;;;;;;;3.60;1.70;;;16.20;72.00;;;;;;6240124;22;20049;-81
2023/05/20 08:19:02;;;;;;;2.75;1.55;;;16.20;72.00;;;;;;6267473;22;20008;-80
2023/05/20 08:21:27;;;;;;;3.75;1.85;;;16.20;72.10;;;;;;6266672;22;20460;-79
2023/05/20 08:23:53;;;;;;;2.85;1.55;;;16.20;72.10;;;;;;6242659;22;20436;-79
2023/05/20 08:26:18;;;;;;;3.47;1.58;;;16.20;72.20;;;;;;6268650;22;20027;-79
2023/05/20 08:28:44;;;;;;;3.22;1.55;;;16.20;72.40;;;;;;6241617;22;20465;-81
2023/05/20 08:31:09;;;;;;;2.75;1.70;;;16.20;72.50;;;;;;6242337;22;20008;-80
2023/05/20 08:33:35;;;;;;;2.97;1.55;;;16.20;72.50;;;;;;6241830;22;20000;-79
2023/05/20 08:36:00;;;;;;;3.17;1.90;;;16.20;72.50;;;;;;6241820;22;20003;-80
2023/05/20 08:38:26;;;;;;;3.45;1.70;;;16.20;72.50;;;;;;6270763;22;20334;-80
2023/05/20 08:40:54;;;;;;;4.10;1.75;;;16.20;72.50;;;;;;6243896;22;20008;-80
2023/05/20 08:43:20;;;;;;;3.60;1.55;;;16.30;72.50;;;;;;6243854;22;20426;-81
2023/05/20 08:45:45;;;;;;;3.67;1.75;;;16.30;72.40;;;;;;6244391;22;20011;-79
2023/05/20 08:48:11;;;;;;;4.68;1.75;;;16.30;72.40;;;;;;6243217;22;20008;-80
2023/05/20 08:50:38;;;;;;;3.85;1.70;;;16.30;72.40;;;;;;6243300;22;20011;-80
2023/05/20 08:53:03;;;;;;;3.10;1.60;;;16.30;72.40;;;;;;6270354;22;20430;-80
2023/05/20 08:55:41;;;;;;;4.30;2.30;;;16.40;72.40;;;;;;6243527;22;19999;-78
2023/05/20 08:58:08;;;;;;;3.38;1.83;;;16.40;72.40;;;;;;6270330;22;20024;-77
2023/05/20 09:00:34;;;;;;;3.10;1.58;;;16.40;72.40;;;;;;6270532;22;20008;-78
2023/05/20 09:03:00;;;;;;;3.42;1.65;;;16.40;72.40;;;;;;6247849;22;20443;-81
2023/05/20 09:05:26;;;;;;;10.10;2.25;;;16.40;72.30;;;;;;6249453;22;20030;-79
2023/05/20 09:07:51;;;;;;;14.27;2.75;;;16.40;72.10;;;;;;6276730;22;20019;-80
2023/05/20 09:10:18;;;;;;;15.82;2.50;;;16.30;71.80;;;;;;6248974;22;20054;-79
2023/05/20 09:12:44;;;;;;;13.30;2.40;;;16.20;71.40;;;;;;6249563;22;20000;-79
2023/05/20 09:15:10;;;;;;;7.75;2.28;;;16.20;72.00;;;;;;6276468;22;20054;-80
2023/05/20 09:17:37;;;;;;;9.20;2.63;;;16.20;71.90;;;;;;6276552;22;20019;-80
2023/05/20 09:20:09;;;;;;;9.48;2.15;;;16.20;71.70;;;;;;6255308;22;20083;-82
2023/05/20 09:22:36;;;;;;;7.47;2.28;;;16.20;71.60;;;;;;6256361;22;20012;-81
2023/05/20 09:25:01;;;;;;;10.85;2.47;;;16.20;71.30;;;;;;6283889;22;20004;-80
2023/05/20 09:27:27;;;;;;;8.30;2.47;;;16.40;71.30;;;;;;6255823;22;20011;-80
2023/05/20 09:29:52;;;;;;;9.60;2.53;;;16.30;71.10;;;;;;6255647;22;20012;-81
2023/05/20 09:32:23;;;;;;;10.18;3.05;;;16.40;71.10;;;;;;6281760;22;20003;-81
2023/05/20 09:34:48;;;;;;;10.85;2.40;;;16.40;71.20;;;;;;6282694;22;19996;-81
2023/05/20 09:37:20;;;;;;;9.95;2.80;;;16.40;71.20;;;;;;6255170;22;20061;-81
2023/05/20 09:39:58;;;;;;;;;;;16.50;71.20;;;;;;6255387;22;20011;-81
2023/05/20 09:42:46;;;;;;;8.02;2.30;;;16.50;71.10;;;;;;6252909;22;19903;-82
2023/05/20 09:45:12;;;;;;;8.00;2.13;;;16.50;71.10;;;;;;6276772;22;20000;-82
2023/05/20 09:47:39;;;;;;;15.98;2.20;;;16.60;71.10;;;;;;6282042;22;20007;-82
2023/05/20 09:50:09;;;;;;;8.63;2.35;;;16.60;71.00;;;;;;6254060;22;20346;-81
2023/05/20 09:52:36;;;;;;;42.53;5.00;;;16.60;71.10;;;;;;6250185;22;20122;-80
2023/05/20 09:55:04;;;;;;;32.75;4.15;;;16.60;71.30;;;;;;6277232;22;20049;-82
2023/05/20 09:57:33;;;;;;;26.95;3.63;;;16.70;71.30;;;;;;6276666;22;20004;-81
2023/05/20 09:59:58;;;;;;;33.58;4.00;;;16.70;71.40;;;;;;6252415;22;20438;-81
2023/05/20 10:02:24;;;;;;;26.38;3.20;;;16.70;71.20;;;;;;6281290;22;20010;-82
2023/05/20 10:04:52;;;;;;;28.10;3.65;;;16.70;71.20;;;;;;6253047;22;20004;-82
2023/05/20 10:07:46;;;;;;;24.13;4.65;;;16.60;71.50;;;;;;6253453;22;20091;-80
2023/05/20 10:10:30;;;;;;;21.02;2.90;;;16.50;71.70;;;;;;6252317;22;20004;-83
2023/05/20 10:13:20;;;;;;;26.05;3.25;;;16.50;71.80;;;;;;6279468;22;20000;-79
2023/05/20 10:16:04;;;;;;;22.92;4.35;;;16.50;72.00;;;;;;6282398;22;20038;-82
2023/05/20 10:18:49;;;;;;;19.80;3.17;;;16.50;72.00;;;;;;6283010;22;20007;-82
2023/05/20 10:21:16;;;;;;;16.73;2.90;;;16.60;72.00;;;;;;6255267;22;20438;-80
2023/05/20 10:23:42;;;;;;;20.70;2.97;;;16.50;72.00;;;;;;6254792;22;20014;-80
2023/05/20 10:26:07;;;;;;;17.65;2.80;;;16.60;72.00;;;;;;6282078;22;20333;-83
2023/05/20 10:28:37;;;;;;;15.65;2.60;;;16.60;72.10;;;;;;6254766;22;20014;-83
2023/05/20 10:31:20;;;;;;;19.80;3.30;;;16.50;72.20;;;;;;6254980;22;19996;-84
2023/05/20 10:33:46;;;;;;;17.05;2.67;;;16.50;72.40;;;;;;6251877;22;20026;-81
2023/05/20 10:36:23;;;;;;;13.43;2.95;;;16.50;72.50;;;;;;6275153;22;20053;-81
2023/05/20 10:38:55;;;;;;;13.88;2.90;;;16.50;72.50;;;;;;6253751;22;20003;-82
2023/05/20 10:41:25;;;;;;;16.55;2.63;;;16.50;72.60;;;;;;6280564;22;20004;-82
2023/05/20 10:44:04;;;;;;;11.57;2.63;;;16.50;72.60;;;;;;6281317;22;20059;-82
2023/05/20 10:46:30;;;;;;;15.63;2.65;;;16.40;72.70;;;;;;6254299;22;20438;-82
2023/05/20 10:48:56;;;;;;;16.70;3.47;;;16.40;72.90;;;;;;6280808;22;20472;-82
2023/05/20 10:51:22;;;;;;;13.18;3.15;;;16.40;72.90;;;;;;6253615;22;20058;-82
2023/05/20 10:53:54;;;;;;;12.65;2.90;;;16.40;72.90;;;;;;6281088;22;19995;-82
2023/05/20 10:56:21;;;;;;;8.95;2.50;;;16.30;72.90;;;;;;6279786;22;19996;-82
2023/05/20 10:58:47;;;;;;;16.15;2.65;;;16.30;73.00;;;;;;6250439;22;20014;-81
2023/05/20 11:01:13;;;;;;;11.00;2.63;;;16.30;73.00;;;;;;6249712;22;20011;-82
2023/05/20 11:03:43;;;;;;;13.57;2.47;;;16.30;73.00;;;;;;6252485;22;20034;-83
2023/05/20 11:06:13;;;;;;;11.88;2.60;;;16.40;73.10;;;;;;6279979;22;20008;-83
2023/05/20 11:08:39;;;;;;;8.50;2.38;;;16.30;73.00;;;;;;6250672;22;20350;-80
2023/05/20 11:11:05;;;;;;;10.95;2.95;;;16.30;73.00;;;;;;6275890;22;20000;-79
2023/05/20 11:13:31;;;;;;;12.18;2.40;;;16.30;73.00;;;;;;6249331;22;20007;-82
2023/05/20 11:15:57;;;;;;;11.32;2.63;;;16.30;73.10;;;;;;6277493;22;20058;-82
2023/05/20 11:18:28;;;;;;;7.63;2.22;;;16.30;73.10;;;;;;6278957;22;20023;-82
2023/05/20 11:20:55;;;;;;;10.98;2.50;;;16.30;73.10;;;;;;6278962;22;20403;-82
2023/05/20 11:23:22;;;;;;;10.63;2.78;;;16.30;73.10;;;;;;6278795;22;19999;-82
2023/05/20 11:25:49;;;;;;;7.93;2.25;;;16.40;73.10;;;;;;6278436;22;19996;-81
2023/05/20 11:28:15;;;;;;;12.50;3.15;;;16.30;73.00;;;;;;6250748;22;20004;-81
2023/05/20 11:30:44;;;;;;;8.25;2.40;;;16.40;73.00;;;;;;6250591;22;19996;-81
2023/05/20 11:33:15;;;;;;;6.95;2.50;;;16.40;72.90;;;;;;6278098;22;20334;-81
2023/05/20 11:35:50;;;;;;;5.22;1.90;;;16.40;72.90;;;;;;6250694;22;20068;-82
2023/05/20 11:38:16;;;;;;;6.65;2.15;;;16.40;72.80;;;;;;6250802;22;20000;-81
2023/05/20 11:40:46;;;;;;;8.05;2.30;;;16.40;72.80;;;;;;6248811;22;20004;-81
2023/05/20 11:43:13;;;;;;;5.45;2.08;;;16.40;72.90;;;;;;6275566;22;20422;-81
2023/05/20 11:45:40;;;;;;;7.18;2.10;;;16.40;72.90;;;;;;6249013;22;20004;-82
2023/05/20 11:48:05;;;;;;;6.97;2.00;;;16.40;72.90;;;;;;6248687;22;20078;-81
2023/05/20 11:50:42;;;;;;;8.68;2.22;;;16.40;73.00;;;;;;6276005;22;20042;-81
2023/05/20 11:53:09;;;;;;;9.18;2.17;;;16.40;73.10;;;;;;6275681;22;20322;-81
2023/05/20 11:55:48;;;;;;;8.77;2.22;;;16.40;73.20;;;;;;6248490;22;20441;-80
2023/05/20 11:58:42;;;;;;;5.88;1.80;;;16.30;73.20;;;;;;6275573;22;20007;-80
2023/05/20 12:01:08;;;;;;;6.32;2.35;;;16.30;73.20;;;;;;6243889;22;20023;-81
2023/05/20 12:03:33;;;;;;;5.97;2.05;;;16.30;73.30;;;;;;6276027;22;20016;-80
2023/05/20 12:06:02;;;;;;;5.70;2.00;;;16.30;73.40;;;;;;6250757;22;20083;-82
2023/05/20 12:08:28;;;;;;;4.25;1.65;;;16.20;73.50;;;;;;6250254;22;20487;-83
2023/05/20 12:10:54;;;;;;;6.30;2.20;;;16.20;73.60;;;;;;6252575;22;20007;-86
2023/05/20 12:13:20;;;;;;;6.00;2.00;;;16.20;73.60;;;;;;6253649;22;20024;-83
2023/05/20 12:15:45;;;;;;;5.90;2.10;;;16.20;73.70;;;;;;6280621;22;20481;-82
2023/05/20 12:18:10;;;;;;;5.95;2.08;;;16.20;73.70;;;;;;6278768;22;20003;-82
2023/05/20 12:20:36;;;;;;;4.70;1.90;;;16.20;73.70;;;;;;6250647;22;20034;-82
2023/05/20 12:23:02;;;;;;;6.55;1.95;;;16.20;73.70;;;;;;6252091;22;20078;-83
2023/05/20 12:25:28;;;;;;;6.80;2.00;;;16.20;73.80;;;;;;6279358;22;20027;-83
2023/05/20 12:27:54;;;;;;;5.70;2.05;;;16.20;73.70;;;;;;6254001;22;20011;-83
2023/05/20 12:30:21;;;;;;;6.32;2.00;;;16.20;73.80;;;;;;6253239;22;20452;-84
2023/05/20 12:32:49;;;;;;;6.10;2.00;;;16.20;73.80;;;;;;6254193;22;20030;-83
2023/05/20 12:35:15;;;;;;;5.03;1.58;;;16.20;73.80;;;;;;6281100;22;20019;-82
2023/05/20 12:37:42;;;;;;;7.45;2.00;;;16.20;73.80;;;;;;6281142;22;20006;-83
2023/05/20 12:40:09;;;;;;;3.65;1.75;;;16.20;73.80;;;;;;6280766;22;20399;-83
2023/05/20 12:42:35;;;;;;;4.63;1.90;;;16.20;73.80;;;;;;6253887;22;20004;-84